Time,TemperatureF,DewpointF,PressureIn,WindDirection,WindDirectionDegrees,WindSpeedMPH,WindSpeedGustMPH,Humidity,HourlyPrecipIn,Conditions,Clouds,dailyrainin,SoftwareType,DateUTC
2013-02-03 00:00:00,43.3,38.5,30.08,WNW,286,0.0,4.0,83,0.00,,---,0.00,VWS V14.01,2013-02-03 05:00:00,
2013-02-03 00:01:00,43.3,38.5,30.08,WNW,286,0.0,4.0,83,0.00,,---,0.00,VWS V14.01,2013-02-03 05:01:00,
2013-02-03 00:15:00,42.9,38.7,30.08,WNW,297,0.0,1.0,85,0.00,,---,0.00,VWS V14.01,2013-02-03 05:15:00,
2013-02-03 00:30:00,42.6,38.7,30.07,WSW,248,1.0,1.0,86,0.00,,---,0.00,VWS V14.01,2013-02-03 05:30:00,
2013-02-03 00:45:00,42.3,38.4,30.06,WSW,246,0.0,1.0,86,0.00,,---,0.00,VWS V14.01,2013-02-03 05:45:00,
2013-02-03 01:00:00,42.3,38.4,30.05,West,281,0.0,5.0,86,0.00,,---,0.00,VWS V14.01,2013-02-03 06:00:00,
2013-02-03 01:15:00,42.2,38.6,30.04,West,271,3.0,4.0,87,0.00,,---,0.00,VWS V14.01,2013-02-03 06:15:00,
2013-02-03 01:30:00,42.5,38.9,30.04,NW,308,0.0,3.0,87,0.00,,---,0.00,VWS V14.01,2013-02-03 06:30:00,
2013-02-03 01:45:00,42.4,38.8,30.04,SW,229,0.0,3.0,87,0.00,,---,0.00,VWS V14.01,2013-02-03 06:45:00,
2013-02-03 02:00:00,42.2,38.9,30.03,WSW,249,0.0,4.0,88,0.00,,---,0.00,VWS V14.01,2013-02-03 07:00:00,
2013-02-03 02:15:00,41.6,38.3,30.03,SW,231,0.0,2.0,88,0.00,,---,0.00,VWS V14.01,2013-02-03 07:15:00,
2013-02-03 02:30:00,41.4,38.4,30.04,NW,324,0.0,4.0,89,0.00,,---,0.00,VWS V14.01,2013-02-03 07:30:00,
2013-02-03 02:45:00,41.6,38.6,30.04,NW,314,4.0,5.0,89,0.00,,---,0.00,VWS V14.01,2013-02-03 07:45:00,
2013-02-03 03:00:00,41.5,38.5,30.03,NNW,328,0.0,6.0,89,0.00,,---,0.00,VWS V14.01,2013-02-03 08:00:00,
2013-02-03 03:15:00,41.2,38.2,30.03,West,266,0.0,7.0,89,0.00,,---,0.00,VWS V14.01,2013-02-03 08:15:00,
2013-02-03 03:30:00,40.8,37.8,30.02,West,281,1.0,8.0,89,0.00,,---,0.00,VWS V14.01,2013-02-03 08:30:00,
2013-02-03 03:45:00,40.4,37.4,30.02,West,274,3.0,7.0,89,0.00,,---,0.00,VWS V14.01,2013-02-03 08:45:00,
2013-02-03 04:00:00,39.9,36.9,30.02,WNW,299,1.0,6.0,89,0.00,,---,0.00,VWS V14.01,2013-02-03 09:00:00,
2013-02-03 04:15:00,39.5,36.2,30.01,WSW,243,3.0,6.0,88,0.00,,---,0.00,VWS V14.01,2013-02-03 09:15:00,
2013-02-03 04:30:00,39.1,35.8,30.01,SW,225,3.0,5.0,88,0.00,,---,0.00,VWS V14.01,2013-02-03 09:30:00,
2013-02-03 04:45:00,38.7,35.5,30.01,WNW,297,1.0,5.0,88,0.00,,---,0.00,VWS V14.01,2013-02-03 09:45:00,
2013-02-03 05:00:00,38.6,35.1,30.02,WNW,291,0.0,5.0,87,0.00,,---,0.00,VWS V14.01,2013-02-03 10:00:00,
2013-02-03 05:15:00,38.5,34.7,30.02,WNW,291,1.0,6.0,86,0.00,,---,0.00,VWS V14.01,2013-02-03 10:15:00,
2013-02-03 05:30:00,38.4,34.3,30.02,West,271,2.0,5.0,85,0.00,,---,0.00,VWS V14.01,2013-02-03 10:30:00,
2013-02-03 05:45:00,38.3,33.9,30.03,WNW,286,2.0,7.0,84,0.00,,---,0.00,VWS V14.01,2013-02-03 10:45:00,
2013-02-03 06:00:00,38.4,34.0,30.03,WNW,300,1.0,8.0,84,0.00,,---,0.00,VWS V14.01,2013-02-03 11:00:00,
2013-02-03 06:15:00,38.3,33.9,30.04,NW,313,0.0,6.0,84,0.00,,---,0.00,VWS V14.01,2013-02-03 11:15:00,
2013-02-03 06:30:00,38.0,33.9,30.04,West,276,2.0,6.0,85,0.00,,---,0.00,VWS V14.01,2013-02-03 11:30:00,
2013-02-03 06:45:00,37.6,33.8,30.04,West,277,0.0,5.0,86,0.00,,---,0.00,VWS V14.01,2013-02-03 11:45:00,
2013-02-03 07:00:00,37.4,33.6,30.05,WSW,256,0.0,6.0,86,0.00,,---,0.00,VWS V14.01,2013-02-03 12:00:00,
2013-02-03 07:15:00,37.2,33.7,30.05,NNW,329,1.0,4.0,87,0.00,,---,0.00,VWS V14.01,2013-02-03 12:15:00,
2013-02-03 07:30:00,37.1,33.6,30.05,WNW,290,0.0,6.0,87,0.00,,---,0.00,VWS V14.01,2013-02-03 12:30:00,
2013-02-03 07:45:00,36.7,33.2,30.05,West,268,0.0,3.0,87,0.00,,---,0.00,VWS V14.01,2013-02-03 12:45:00,
2013-02-03 08:00:00,36.6,33.4,30.06,WSW,255,0.0,5.0,88,0.00,,---,0.00,VWS V14.01,2013-02-03 13:00:00,
2013-02-03 08:15:00,36.8,33.6,30.06,West,270,1.0,6.0,88,0.00,,---,0.00,VWS V14.01,2013-02-03 13:15:00,
2013-02-03 08:30:00,37.3,33.8,30.06,SSW,205,1.0,5.0,87,0.00,,---,0.00,VWS V14.01,2013-02-03 13:30:00,
2013-02-03 08:45:00,38.4,34.0,30.05,West,266,2.0,7.0,84,0.00,,---,0.00,VWS V14.01,2013-02-03 13:45:00,
2013-02-03 09:00:00,39.6,34.0,30.05,SW,225,5.0,9.0,80,0.00,,---,0.00,VWS V14.01,2013-02-03 14:00:00,
2013-02-03 09:15:00,40.7,34.4,30.05,West,266,5.0,8.0,78,0.00,,---,0.00,VWS V14.01,2013-02-03 14:15:00,
2013-02-03 09:30:00,41.7,34.0,30.05,NW,304,2.0,10.0,74,0.00,,---,0.00,VWS V14.01,2013-02-03 14:30:00,
2013-02-03 09:45:00,42.5,34.8,30.06,NW,306,3.0,9.0,74,0.00,,---,0.00,VWS V14.01,2013-02-03 14:45:00,
2013-02-03 10:00:00,43.4,35.0,30.05,WSW,246,7.0,8.0,72,0.00,,---,0.00,VWS V14.01,2013-02-03 15:00:00,
2013-02-03 10:15:00,44.3,34.8,30.04,NNE,16,5.0,9.0,69,0.00,,---,0.00,VWS V14.01,2013-02-03 15:15:00,
2013-02-03 10:30:00,45.6,35.7,30.04,WNW,295,4.0,8.0,68,0.00,,---,0.00,VWS V14.01,2013-02-03 15:30:00,
2013-02-03 10:45:00,46.5,35.4,30.03,West,270,3.0,11.0,65,0.00,,---,0.00,VWS V14.01,2013-02-03 15:45:00,
2013-02-03 11:00:00,47.9,36.7,30.02,WSW,240,1.0,13.0,65,0.00,,---,0.00,VWS V14.01,2013-02-03 16:00:00,
2013-02-03 11:15:00,49.3,36.8,30.02,WSW,250,4.0,10.0,62,0.00,,---,0.00,VWS V14.01,2013-02-03 16:15:00,
2013-02-03 11:30:00,51.1,36.8,30.01,West,266,1.0,9.0,58,0.00,,---,0.00,VWS V14.01,2013-02-03 16:30:00,
2013-02-03 11:45:00,52.0,36.3,30.00,West,271,1.0,14.0,55,0.00,,---,0.00,VWS V14.01,2013-02-03 16:45:00,
2013-02-03 12:00:00,52.6,36.9,29.99,WNW,297,3.0,12.0,55,0.00,,---,0.00,VWS V14.01,2013-02-03 17:00:00,
2013-02-03 12:15:00,54.0,36.3,29.97,West,278,1.0,12.0,51,0.00,,---,0.00,VWS V14.01,2013-02-03 17:15:00,
2013-02-03 12:30:00,54.7,36.9,29.96,NW,309,6.0,14.0,51,0.00,,---,0.00,VWS V14.01,2013-02-03 17:30:00,
2013-02-03 12:45:00,54.9,35.6,29.95,West,263,3.0,16.0,48,0.00,,---,0.00,VWS V14.01,2013-02-03 17:45:00,
2013-02-03 13:00:00,55.6,35.7,29.94,WNW,288,6.0,16.0,47,0.00,,---,0.00,VWS V14.01,2013-02-03 18:00:00,
2013-02-03 13:15:00,56.8,35.1,29.93,WNW,296,10.0,12.0,44,0.00,,---,0.00,VWS V14.01,2013-02-03 18:15:00,
2013-02-03 13:30:00,56.1,35.1,29.92,NW,324,2.0,21.0,45,0.00,,---,0.00,VWS V14.01,2013-02-03 18:30:00,
2013-02-03 13:45:00,57.2,35.5,29.91,NE,46,1.0,13.0,44,0.00,,---,0.00,VWS V14.01,2013-02-03 18:45:00,
2013-02-03 14:00:00,57.0,32.9,29.91,WNW,285,9.0,19.0,40,0.00,,---,0.00,VWS V14.01,2013-02-03 19:00:00,
2013-02-03 14:15:00,57.1,33.0,29.91,NW,314,10.0,16.0,40,0.00,,---,0.00,VWS V14.01,2013-02-03 19:15:00,
2013-02-03 14:30:00,57.7,31.6,29.91,SSW,212,5.0,17.0,37,0.00,,---,0.00,VWS V14.01,2013-02-03 19:30:00,
2013-02-03 14:45:00,57.6,32.2,29.90,NW,311,5.0,19.0,38,0.00,,---,0.00,VWS V14.01,2013-02-03 19:45:00,
2013-02-03 15:00:00,58.2,30.7,29.90,West,259,4.0,14.0,35,0.00,,---,0.00,VWS V14.01,2013-02-03 20:00:00,
2013-02-03 15:15:00,57.8,31.0,29.90,WNW,302,3.0,18.0,36,0.00,,---,0.00,VWS V14.01,2013-02-03 20:15:00,
2013-02-03 15:30:00,58.0,31.2,29.90,West,276,4.0,16.0,36,0.00,,---,0.00,VWS V14.01,2013-02-03 20:30:00,
2013-02-03 15:45:00,58.4,28.7,29.90,NW,314,7.0,18.0,32,0.00,,---,0.00,VWS V14.01,2013-02-03 20:45:00,
2013-02-03 16:00:00,58.4,28.7,29.91,WNW,299,6.0,14.0,32,0.00,,---,0.00,VWS V14.01,2013-02-03 21:00:00,
2013-02-03 16:15:00,58.2,27.7,29.91,NW,305,8.0,24.0,31,0.00,,---,0.00,VWS V14.01,2013-02-03 21:15:00,
2013-02-03 16:30:00,58.0,26.0,29.92,NW,319,2.0,19.0,29,0.00,,---,0.00,VWS V14.01,2013-02-03 21:30:00,
2013-02-03 16:45:00,57.1,23.5,29.92,WNW,294,6.0,14.0,27,0.00,,---,0.00,VWS V14.01,2013-02-03 21:45:00,
2013-02-03 17:00:00,56.2,24.4,29.93,WNW,297,11.0,13.0,29,0.00,,---,0.00,VWS V14.01,2013-02-03 22:00:00,
2013-02-03 17:15:00,55.7,25.5,29.93,NW,305,4.0,16.0,31,0.00,,---,0.00,VWS V14.01,2013-02-03 22:15:00,
2013-02-03 17:30:00,55.1,26.5,29.94,NW,313,5.0,11.0,33,0.00,,---,0.00,VWS V14.01,2013-02-03 22:30:00,
2013-02-03 17:45:00,54.3,27.2,29.94,WNW,302,5.0,16.0,35,0.00,,---,0.00,VWS V14.01,2013-02-03 22:45:00,
2013-02-03 18:00:00,53.3,27.7,29.95,WNW,302,5.0,11.0,37,0.00,,---,0.00,VWS V14.01,2013-02-03 23:00:00,
2013-02-03 18:15:00,52.4,28.2,29.95,WNW,302,4.0,10.0,39,0.00,,---,0.00,VWS V14.01,2013-02-03 23:15:00,
2013-02-03 18:30:00,51.7,28.8,29.96,NNW,328,2.0,8.0,41,0.00,,---,0.00,VWS V14.01,2013-02-03 23:30:00,
2013-02-03 18:45:00,51.1,28.8,29.97,NW,321,3.0,8.0,42,0.00,,---,0.00,VWS V14.01,2013-02-03 23:45:00,
2013-02-03 19:00:00,50.3,29.2,29.97,WNW,285,1.0,5.0,44,0.00,,---,0.00,VWS V14.01,2013-02-04 00:00:00,
2013-02-03 19:15:00,49.4,29.0,29.98,WNW,299,1.0,2.0,45,0.00,,---,0.00,VWS V14.01,2013-02-04 00:15:00,
2013-02-03 19:30:00,48.6,28.8,29.98,WNW,290,1.0,2.0,46,0.00,,---,0.00,VWS V14.01,2013-02-04 00:30:00,
2013-02-03 19:45:00,48.0,28.8,29.98,WNW,297,0.0,3.0,47,0.00,,---,0.00,VWS V14.01,2013-02-04 00:45:00,
2013-02-03 20:00:00,47.4,29.2,29.99,NW,308,0.0,2.0,49,0.00,,---,0.00,VWS V14.01,2013-02-04 01:00:00,
2013-02-03 20:15:00,46.1,29.5,30.00,NW,308,0.0,0.0,52,0.00,,---,0.00,VWS V14.01,2013-02-04 01:15:00,
2013-02-03 20:30:00,46.4,29.3,30.00,WNW,291,0.0,2.0,51,0.00,,---,0.00,VWS V14.01,2013-02-04 01:30:00,
2013-02-03 20:45:00,46.0,29.4,30.00,WNW,290,1.0,1.0,52,0.00,,---,0.00,VWS V14.01,2013-02-04 01:45:00,
2013-02-03 21:00:00,46.1,29.5,30.00,NW,319,0.0,5.0,52,0.00,,---,0.00,VWS V14.01,2013-02-04 02:00:00,
2013-02-03 21:15:00,46.1,29.5,30.01,NW,307,1.0,3.0,52,0.00,,---,0.00,VWS V14.01,2013-02-04 02:15:00,
2013-02-03 21:30:00,45.7,29.6,30.01,WNW,294,1.0,3.0,53,0.00,,---,0.00,VWS V14.01,2013-02-04 02:30:00,
2013-02-03 21:45:00,45.5,29.8,30.01,WNW,287,1.0,3.0,54,0.00,,---,0.00,VWS V14.01,2013-02-04 02:45:00,
2013-02-03 22:00:00,44.8,29.6,30.01,NW,308,2.0,5.0,55,0.00,,---,0.00,VWS V14.01,2013-02-04 03:00:00,
2013-02-03 22:15:00,44.4,29.7,30.01,WNW,291,1.0,4.0,56,0.00,,---,0.00,VWS V14.01,2013-02-04 03:15:00,
2013-02-03 22:30:00,44.0,29.8,30.01,WNW,297,0.0,4.0,57,0.00,,---,0.00,VWS V14.01,2013-02-04 03:30:00,
2013-02-03 22:45:00,43.5,29.7,30.01,West,266,0.0,2.0,58,0.00,,---,0.00,VWS V14.01,2013-02-04 03:45:00,
2013-02-03 23:00:00,42.7,29.8,30.02,NW,315,1.0,3.0,60,0.00,,---,0.00,VWS V14.01,2013-02-04 04:00:00,
2013-02-03 23:15:00,42.5,30.0,30.02,NW,311,0.0,2.0,61,0.00,,---,0.00,VWS V14.01,2013-02-04 04:15:00,
2013-02-03 23:30:00,42.1,30.0,30.02,West,277,1.0,3.0,62,0.00,,---,0.00,VWS V14.01,2013-02-04 04:30:00,
2013-02-03 23:45:00,41.8,30.1,30.02,NW,311,1.0,2.0,63,0.00,,---,0.00,VWS V14.01,2013-02-04 04:45:00,